Naven, Sweden

9:51 AM CET on December 07, 2016 (GMT +0100)
Stenportsgatan | | Change Station

Elev 167 ft 58.51 °N, 13.14 °E | Updated 5 minutes ago

Mostly Cloudy
Mostly Cloudy
35.1 °F
Feels Like 35 °F
N
1.9
Wind Variable Wind from North
Gusts 6.2 mph

Today
High -- | Low -- °F
--% Chance of Precip.
Yesterday
High -- | Low -- °F
Precip. -- in
Pressure 30.18 in
Visibility 6.2 miles
Clouds Few 600 ft
Mostly Cloudy 1800 ft
Windchill 35 °F
Dew Point 34 °F
Humidity 96%
Rainfall 0.00 in
Snow Depth Not available.
8:43 AM 3:14 PM
Waxing Crescent, 50% visible
METAR ESIB 070820Z 20009KT 9999 FEW006 BKN018 02/02 Q1022
Pressure 30.18 in
Visibility 6.2 miles
Clouds Few 600 ft
Mostly Cloudy 1800 ft
Windchill 35 °F
Dew Point 34 °F
Humidity 96%
Rainfall 0.00 in
Snow Depth Not available.
8:43 AM 3:14 PM
Waxing Crescent, 50% visible
METAR ESIB 070820Z 20009KT 9999 FEW006 BKN018 02/02 Q1022

10-Day Weather Forecast

×

Almanac

Astronomy

Dec. 07, 2016 Rise Set
Actual Time
Civil Twilight
Nautical Twilight
Astronomical Twilight
Moon
Length of Visible Light
Length of Day
Tomorrow will be .
, % of the Moon is Illuminated

Today's Extremes

Country Highs Country Lows

Community

WunderPhotos

Upload Photos

1,956,104 photos uploaded!

WunderBlog® & News

Nearby

Air Quality

  Air Quality AQ Index Pollutant
Not available.

Snow Depth

Station Depth Elevation

Earthquake Activity

City Distance Mag. Time & Date
Minimum magnitude displayed is 2.5.

Coastal Water Temperatures

Place Temperature

Stations

Nearby Weather Stations

Station Location Temp. Windchill Dew Point Humidity Wind Precip. Elev Updated Type